sensor_id;sensor_type;location;lat;lon;timestamp;P1;durP1;ratioP1;P2;durP2;ratioP2
9960;SDS011;5021;51.506;11.320;2022-08-25T00:00:03;7.53;;;6.83;;
9960;SDS011;5021;51.506;11.320;2022-08-25T00:02:29;8.50;;;7.60;;
9960;SDS011;5021;51.506;11.320;2022-08-25T00:04:55;8.47;;;7.60;;
9960;SDS011;5021;51.506;11.320;2022-08-25T00:07:21;7.70;;;6.90;;
9960;SDS011;5021;51.506;11.320;2022-08-25T00:09:47;9.73;;;8.30;;
9960;SDS011;5021;51.506;11.320;2022-08-25T00:12:13;9.13;;;7.30;;
9960;SDS011;5021;51.506;11.320;2022-08-25T00:14:39;8.13;;;7.33;;
9960;SDS011;5021;51.506;11.320;2022-08-25T00:17:06;8.77;;;7.60;;
9960;SDS011;5021;51.506;11.320;2022-08-25T00:19:34;8.00;;;7.20;;
9960;SDS011;5021;51.506;11.320;2022-08-25T00:22:00;8.77;;;7.40;;
9960;SDS011;5021;51.506;11.320;2022-08-25T00:24:27;8.00;;;7.20;;
9960;SDS011;5021;51.506;11.320;2022-08-25T00:26:54;8.07;;;7.30;;
9960;SDS011;5021;51.506;11.320;2022-08-25T00:29:21;9.80;;;7.50;;
9960;SDS011;5021;51.506;11.320;2022-08-25T00:31:49;9.30;;;7.47;;
9960;SDS011;5021;51.506;11.320;2022-08-25T00:34:18;7.77;;;7.07;;
9960;SDS011;5021;51.506;11.320;2022-08-25T00:36:45;8.30;;;7.23;;
9960;SDS011;5021;51.506;11.320;2022-08-25T00:39:11;8.10;;;7.27;;
9960;SDS011;5021;51.506;11.320;2022-08-25T00:41:38;8.13;;;7.20;;
9960;SDS011;5021;51.506;11.320;2022-08-25T00:44:07;8.40;;;7.60;;
9960;SDS011;5021;51.506;11.320;2022-08-25T00:46:34;8.27;;;7.53;;
9960;SDS011;5021;51.506;11.320;2022-08-25T00:49:03;8.77;;;7.47;;
9960;SDS011;5021;51.506;11.320;2022-08-25T00:51:47;8.90;;;7.47;;
9960;SDS011;5021;51.506;11.320;2022-08-25T00:54:17;8.67;;;7.10;;
9960;SDS011;5021;51.506;11.320;2022-08-25T00:56:43;9.17;;;7.47;;
9960;SDS011;5021;51.506;11.320;2022-08-25T00:59:09;10.73;;;7.97;;
9960;SDS011;5021;51.506;11.320;2022-08-25T01:01:35;9.47;;;8.10;;
9960;SDS011;5021;51.506;11.320;2022-08-25T01:04:02;11.13;;;8.33;;
9960;SDS011;5021;51.506;11.320;2022-08-25T01:06:28;9.40;;;8.07;;
9960;SDS011;5021;51.506;11.320;2022-08-25T01:08:54;9.57;;;8.57;;
9960;SDS011;5021;51.506;11.320;2022-08-25T01:11:20;8.07;;;7.30;;
9960;SDS011;5021;51.506;11.320;2022-08-25T01:13:48;8.37;;;7.57;;
9960;SDS011;5021;51.506;11.320;2022-08-25T01:16:15;9.03;;;8.07;;
9960;SDS011;5021;51.506;11.320;2022-08-25T01:18:42;10.33;;;8.07;;
9960;SDS011;5021;51.506;11.320;2022-08-25T01:21:08;8.40;;;7.70;;
9960;SDS011;5021;51.506;11.320;2022-08-25T01:23:35;10.00;;;8.10;;
9960;SDS011;5021;51.506;11.320;2022-08-25T01:26:03;9.90;;;7.90;;
9960;SDS011;5021;51.506;11.320;2022-08-25T01:28:30;8.37;;;7.47;;
9960;SDS011;5021;51.506;11.320;2022-08-25T01:30:56;8.63;;;7.70;;
9960;SDS011;5021;51.506;11.320;2022-08-25T01:33:22;7.90;;;7.20;;
9960;SDS011;5021;51.506;11.320;2022-08-25T01:35:48;8.47;;;7.57;;
9960;SDS011;5021;51.506;11.320;2022-08-25T01:38:14;11.33;;;8.37;;
9960;SDS011;5021;51.506;11.320;2022-08-25T01:40:41;8.20;;;7.40;;
9960;SDS011;5021;51.506;11.320;2022-08-25T01:45:42;8.10;;;7.30;;
9960;SDS011;5021;51.506;11.320;2022-08-25T01:48:09;7.80;;;7.00;;
9960;SDS011;5021;51.506;11.320;2022-08-25T01:50:36;8.27;;;7.43;;
9960;SDS011;5021;51.506;11.320;2022-08-25T01:53:04;8.83;;;7.57;;
9960;SDS011;5021;51.506;11.320;2022-08-25T01:55:32;7.70;;;6.90;;
9960;SDS011;5021;51.506;11.320;2022-08-25T01:58:16;8.00;;;7.30;;
9960;SDS011;5021;51.506;11.320;2022-08-25T02:00:46;10.00;;;8.23;;
9960;SDS011;5021;51.506;11.320;2022-08-25T02:03:12;8.77;;;7.97;;
9960;SDS011;5021;51.506;11.320;2022-08-25T02:05:38;8.90;;;8.10;;
9960;SDS011;5021;51.506;11.320;2022-08-25T02:08:04;9.87;;;7.90;;
9960;SDS011;5021;51.506;11.320;2022-08-25T02:10:31;8.63;;;7.83;;
9960;SDS011;5021;51.506;11.320;2022-08-25T02:12:57;10.30;;;8.00;;
9960;SDS011;5021;51.506;11.320;2022-08-25T02:15:23;9.33;;;8.00;;
9960;SDS011;5021;51.506;11.320;2022-08-25T02:17:49;9.07;;;8.17;;
9960;SDS011;5021;51.506;11.320;2022-08-25T02:20:15;9.00;;;8.10;;
9960;SDS011;5021;51.506;11.320;2022-08-25T02:22:41;9.07;;;8.20;;
9960;SDS011;5021;51.506;11.320;2022-08-25T02:25:08;9.03;;;8.23;;
9960;SDS011;5021;51.506;11.320;2022-08-25T02:27:34;9.23;;;8.33;;
9960;SDS011;5021;51.506;11.320;2022-08-25T02:30:00;9.53;;;8.63;;
9960;SDS011;5021;51.506;11.320;2022-08-25T02:32:26;9.27;;;8.37;;
9960;SDS011;5021;51.506;11.320;2022-08-25T02:34:52;9.80;;;8.53;;
9960;SDS011;5021;51.506;11.320;2022-08-25T02:37:18;9.17;;;8.30;;
9960;SDS011;5021;51.506;11.320;2022-08-25T02:39:44;9.17;;;8.27;;
9960;SDS011;5021;51.506;11.320;2022-08-25T02:42:11;10.43;;;9.33;;
9960;SDS011;5021;51.506;11.320;2022-08-25T02:44:37;9.13;;;8.23;;
9960;SDS011;5021;51.506;11.320;2022-08-25T02:47:03;10.33;;;9.43;;
9960;SDS011;5021;51.506;11.320;2022-08-25T02:49:29;10.47;;;9.47;;
9960;SDS011;5021;51.506;11.320;2022-08-25T02:51:56;9.87;;;8.83;;
9960;SDS011;5021;51.506;11.320;2022-08-25T02:54:24;10.23;;;8.80;;
9960;SDS011;5021;51.506;11.320;2022-08-25T02:56:50;9.83;;;8.77;;
9960;SDS011;5021;51.506;11.320;2022-08-25T02:59:16;11.03;;;8.97;;
9960;SDS011;5021;51.506;11.320;2022-08-25T03:01:43;10.10;;;9.20;;
9960;SDS011;5021;51.506;11.320;2022-08-25T03:04:09;9.63;;;8.53;;
9960;SDS011;5021;51.506;11.320;2022-08-25T03:06:35;9.87;;;8.90;;
9960;SDS011;5021;51.506;11.320;2022-08-25T03:09:02;10.20;;;8.80;;
9960;SDS011;5021;51.506;11.320;2022-08-25T03:11:28;18.00;;;9.30;;
9960;SDS011;5021;51.506;11.320;2022-08-25T03:13:55;10.17;;;9.13;;
9960;SDS011;5021;51.506;11.320;2022-08-25T03:16:23;11.70;;;9.67;;
9960;SDS011;5021;51.506;11.320;2022-08-25T03:18:49;9.20;;;8.40;;
9960;SDS011;5021;51.506;11.320;2022-08-25T03:21:15;10.63;;;9.30;;
9960;SDS011;5021;51.506;11.320;2022-08-25T03:23:42;10.13;;;9.13;;
9960;SDS011;5021;51.506;11.320;2022-08-25T03:26:08;10.30;;;9.30;;
9960;SDS011;5021;51.506;11.320;2022-08-25T03:28:53;10.83;;;9.77;;
9960;SDS011;5021;51.506;11.320;2022-08-25T03:31:22;10.33;;;9.40;;
9960;SDS011;5021;51.506;11.320;2022-08-25T03:33:50;11.50;;;9.73;;
9960;SDS011;5021;51.506;11.320;2022-08-25T03:36:16;12.43;;;10.57;;
9960;SDS011;5021;51.506;11.320;2022-08-25T03:38:42;11.13;;;10.10;;
9960;SDS011;5021;51.506;11.320;2022-08-25T03:41:15;10.70;;;9.60;;
9960;SDS011;5021;51.506;11.320;2022-08-25T03:43:42;11.73;;;9.77;;
9960;SDS011;5021;51.506;11.320;2022-08-25T03:46:08;11.10;;;9.90;;
9960;SDS011;5021;51.506;11.320;2022-08-25T03:48:34;11.73;;;10.63;;
9960;SDS011;5021;51.506;11.320;2022-08-25T03:51:00;11.60;;;10.17;;
9960;SDS011;5021;51.506;11.320;2022-08-25T03:53:26;11.80;;;10.60;;
9960;SDS011;5021;51.506;11.320;2022-08-25T03:55:52;11.70;;;10.63;;
9960;SDS011;5021;51.506;11.320;2022-08-25T03:58:18;11.20;;;9.80;;
9960;SDS011;5021;51.506;11.320;2022-08-25T04:00:44;11.30;;;10.13;;
9960;SDS011;5021;51.506;11.320;2022-08-25T04:03:10;11.60;;;10.40;;
9960;SDS011;5021;51.506;11.320;2022-08-25T04:05:36;10.80;;;9.80;;
9960;SDS011;5021;51.506;11.320;2022-08-25T04:08:02;12.63;;;10.87;;
9960;SDS011;5021;51.506;11.320;2022-08-25T04:10:28;13.37;;;10.33;;
9960;SDS011;5021;51.506;11.320;2022-08-25T04:12:55;12.10;;;10.60;;
9960;SDS011;5021;51.506;11.320;2022-08-25T04:15:22;11.73;;;10.37;;
9960;SDS011;5021;51.506;11.320;2022-08-25T04:17:49;13.03;;;10.77;;
9960;SDS011;5021;51.506;11.320;2022-08-25T04:20:15;12.93;;;10.87;;
9960;SDS011;5021;51.506;11.320;2022-08-25T04:22:41;11.07;;;9.97;;
9960;SDS011;5021;51.506;11.320;2022-08-25T04:25:07;10.80;;;9.80;;
9960;SDS011;5021;51.506;11.320;2022-08-25T04:27:34;11.60;;;10.47;;
9960;SDS011;5021;51.506;11.320;2022-08-25T04:30:01;11.83;;;10.63;;
9960;SDS011;5021;51.506;11.320;2022-08-25T04:32:27;11.93;;;10.73;;
9960;SDS011;5021;51.506;11.320;2022-08-25T04:34:53;13.30;;;10.80;;
9960;SDS011;5021;51.506;11.320;2022-08-25T04:37:19;12.17;;;11.07;;
9960;SDS011;5021;51.506;11.320;2022-08-25T04:39:45;12.90;;;11.43;;
9960;SDS011;5021;51.506;11.320;2022-08-25T04:42:11;13.27;;;11.63;;
9960;SDS011;5021;51.506;11.320;2022-08-25T04:44:37;13.10;;;10.40;;
9960;SDS011;5021;51.506;11.320;2022-08-25T04:47:03;13.00;;;10.80;;
9960;SDS011;5021;51.506;11.320;2022-08-25T04:49:29;13.10;;;10.60;;
9960;SDS011;5021;51.506;11.320;2022-08-25T04:51:55;14.73;;;11.10;;
9960;SDS011;5021;51.506;11.320;2022-08-25T04:54:21;12.90;;;10.93;;
9960;SDS011;5021;51.506;11.320;2022-08-25T04:56:49;11.87;;;10.73;;
9960;SDS011;5021;51.506;11.320;2022-08-25T04:59:15;13.57;;;11.33;;
9960;SDS011;5021;51.506;11.320;2022-08-25T05:01:42;11.63;;;10.43;;
9960;SDS011;5021;51.506;11.320;2022-08-25T05:04:10;13.37;;;10.63;;
9960;SDS011;5021;51.506;11.320;2022-08-25T05:06:37;11.83;;;10.63;;
9960;SDS011;5021;51.506;11.320;2022-08-25T05:09:03;12.30;;;10.93;;
9960;SDS011;5021;51.506;11.320;2022-08-25T05:11:30;12.20;;;10.93;;
9960;SDS011;5021;51.506;11.320;2022-08-25T05:13:56;12.30;;;10.47;;
9960;SDS011;5021;51.506;11.320;2022-08-25T05:16:23;14.53;;;10.70;;
9960;SDS011;5021;51.506;11.320;2022-08-25T05:18:49;11.70;;;10.47;;
9960;SDS011;5021;51.506;11.320;2022-08-25T05:21:17;12.47;;;10.90;;
9960;SDS011;5021;51.506;11.320;2022-08-25T05:23:44;11.60;;;10.27;;
9960;SDS011;5021;51.506;11.320;2022-08-25T05:26:15;12.13;;;10.93;;
9960;SDS011;5021;51.506;11.320;2022-08-25T05:28:41;11.53;;;10.33;;
9960;SDS011;5021;51.506;11.320;2022-08-25T05:31:08;11.50;;;10.30;;
9960;SDS011;5021;51.506;11.320;2022-08-25T05:33:35;11.93;;;10.80;;
9960;SDS011;5021;51.506;11.320;2022-08-25T05:36:01;11.50;;;9.77;;
9960;SDS011;5021;51.506;11.320;2022-08-25T05:38:27;12.60;;;10.07;;
9960;SDS011;5021;51.506;11.320;2022-08-25T05:40:57;10.70;;;9.60;;
9960;SDS011;5021;51.506;11.320;2022-08-25T05:43:23;11.27;;;10.10;;
9960;SDS011;5021;51.506;11.320;2022-08-25T05:45:52;11.50;;;10.40;;
9960;SDS011;5021;51.506;11.320;2022-08-25T05:48:18;12.37;;;10.70;;
9960;SDS011;5021;51.506;11.320;2022-08-25T05:50:54;10.83;;;9.73;;
9960;SDS011;5021;51.506;11.320;2022-08-25T05:53:21;11.87;;;9.73;;
9960;SDS011;5021;51.506;11.320;2022-08-25T05:55:47;14.60;;;10.07;;
9960;SDS011;5021;51.506;11.320;2022-08-25T05:58:13;10.47;;;9.37;;
9960;SDS011;5021;51.506;11.320;2022-08-25T06:00:39;12.07;;;10.20;;
9960;SDS011;5021;51.506;11.320;2022-08-25T06:03:05;13.90;;;11.57;;
9960;SDS011;5021;51.506;11.320;2022-08-25T06:05:31;13.20;;;11.77;;
9960;SDS011;5021;51.506;11.320;2022-08-25T06:07:57;12.17;;;10.83;;
9960;SDS011;5021;51.506;11.320;2022-08-25T06:10:24;12.57;;;10.43;;
9960;SDS011;5021;51.506;11.320;2022-08-25T06:12:50;11.27;;;10.07;;
9960;SDS011;5021;51.506;11.320;2022-08-25T06:15:17;12.87;;;11.37;;
9960;SDS011;5021;51.506;11.320;2022-08-25T06:17:44;11.43;;;10.30;;
9960;SDS011;5021;51.506;11.320;2022-08-25T06:20:20;10.43;;;9.43;;
9960;SDS011;5021;51.506;11.320;2022-08-25T06:22:47;11.07;;;9.83;;
9960;SDS011;5021;51.506;11.320;2022-08-25T06:25:13;12.17;;;10.00;;
9960;SDS011;5021;51.506;11.320;2022-08-25T06:27:40;12.27;;;10.50;;
9960;SDS011;5021;51.506;11.320;2022-08-25T06:30:06;13.10;;;11.07;;
9960;SDS011;5021;51.506;11.320;2022-08-25T06:32:34;13.70;;;10.63;;
9960;SDS011;5021;51.506;11.320;2022-08-25T06:35:01;13.93;;;11.17;;
9960;SDS011;5021;51.506;11.320;2022-08-25T06:37:27;12.80;;;11.57;;
9960;SDS011;5021;51.506;11.320;2022-08-25T06:39:53;12.03;;;10.60;;
9960;SDS011;5021;51.506;11.320;2022-08-25T06:42:19;14.47;;;11.33;;
9960;SDS011;5021;51.506;11.320;2022-08-25T06:44:45;14.43;;;11.50;;
9960;SDS011;5021;51.506;11.320;2022-08-25T06:47:11;14.03;;;12.20;;
9960;SDS011;5021;51.506;11.320;2022-08-25T06:49:39;16.23;;;12.23;;
9960;SDS011;5021;51.506;11.320;2022-08-25T06:52:06;15.27;;;12.07;;
9960;SDS011;5021;51.506;11.320;2022-08-25T06:54:32;12.27;;;11.07;;
9960;SDS011;5021;51.506;11.320;2022-08-25T06:56:58;14.43;;;11.43;;
9960;SDS011;5021;51.506;11.320;2022-08-25T06:59:24;18.83;;;12.27;;
9960;SDS011;5021;51.506;11.320;2022-08-25T07:01:50;11.73;;;10.40;;
9960;SDS011;5021;51.506;11.320;2022-08-25T07:04:16;12.70;;;11.40;;
9960;SDS011;5021;51.506;11.320;2022-08-25T07:06:42;14.03;;;11.37;;
9960;SDS011;5021;51.506;11.320;2022-08-25T07:09:09;12.50;;;11.03;;
9960;SDS011;5021;51.506;11.320;2022-08-25T07:11:35;14.73;;;10.50;;
9960;SDS011;5021;51.506;11.320;2022-08-25T07:14:03;12.23;;;10.00;;
9960;SDS011;5021;51.506;11.320;2022-08-25T07:16:29;11.93;;;10.00;;
9960;SDS011;5021;51.506;11.320;2022-08-25T07:18:56;11.83;;;9.73;;
9960;SDS011;5021;51.506;11.320;2022-08-25T07:21:23;14.03;;;9.97;;
9960;SDS011;5021;51.506;11.320;2022-08-25T07:23:50;12.20;;;10.07;;
9960;SDS011;5021;51.506;11.320;2022-08-25T07:26:18;14.10;;;9.33;;
9960;SDS011;5021;51.506;11.320;2022-08-25T07:28:45;11.83;;;10.03;;
9960;SDS011;5021;51.506;11.320;2022-08-25T07:31:11;12.27;;;9.10;;
9960;SDS011;5021;51.506;11.320;2022-08-25T07:33:37;10.83;;;8.67;;
9960;SDS011;5021;51.506;11.320;2022-08-25T07:36:23;14.23;;;9.73;;
9960;SDS011;5021;51.506;11.320;2022-08-25T07:38:49;11.90;;;9.25;;
9960;SDS011;5021;51.506;11.320;2022-08-25T07:41:15;12.88;;;9.10;;
9960;SDS011;5021;51.506;11.320;2022-08-25T07:43:41;10.20;;;8.73;;
9960;SDS011;5021;51.506;11.320;2022-08-25T07:46:08;10.15;;;8.55;;
9960;SDS011;5021;51.506;11.320;2022-08-25T07:48:34;11.95;;;8.70;;
9960;SDS011;5021;51.506;11.320;2022-08-25T07:51:05;15.18;;;9.07;;
9960;SDS011;5021;51.506;11.320;2022-08-25T07:53:31;13.55;;;9.27;;
9960;SDS011;5021;51.506;11.320;2022-08-25T07:55:57;11.18;;;8.35;;
9960;SDS011;5021;51.506;11.320;2022-08-25T07:58:23;17.92;;;9.55;;
9960;SDS011;5021;51.506;11.320;2022-08-25T08:00:49;10.10;;;8.55;;
9960;SDS011;5021;51.506;11.320;2022-08-25T08:03:17;13.13;;;9.48;;
9960;SDS011;5021;51.506;11.320;2022-08-25T08:05:43;10.02;;;8.73;;
9960;SDS011;5021;51.506;11.320;2022-08-25T08:08:09;13.68;;;10.05;;
9960;SDS011;5021;51.506;11.320;2022-08-25T08:10:37;15.73;;;9.80;;
9960;SDS011;5021;51.506;11.320;2022-08-25T08:13:03;14.55;;;10.02;;
9960;SDS011;5021;51.506;11.320;2022-08-25T08:15:29;14.87;;;10.13;;
9960;SDS011;5021;51.506;11.320;2022-08-25T08:17:56;14.47;;;9.47;;
9960;SDS011;5021;51.506;11.320;2022-08-25T08:20:22;12.32;;;10.10;;
9960;SDS011;5021;51.506;11.320;2022-08-25T08:22:48;17.93;;;10.43;;
9960;SDS011;5021;51.506;11.320;2022-08-25T08:25:14;14.00;;;8.97;;
9960;SDS011;5021;51.506;11.320;2022-08-25T08:27:40;16.87;;;9.83;;
9960;SDS011;5021;51.506;11.320;2022-08-25T08:30:07;11.30;;;9.57;;
9960;SDS011;5021;51.506;11.320;2022-08-25T08:32:33;15.80;;;10.20;;
9960;SDS011;5021;51.506;11.320;2022-08-25T08:35:00;10.30;;;9.10;;
9960;SDS011;5021;51.506;11.320;2022-08-25T08:37:26;17.83;;;10.13;;
9960;SDS011;5021;51.506;11.320;2022-08-25T08:39:52;15.13;;;9.93;;
9960;SDS011;5021;51.506;11.320;2022-08-25T08:54:57;10.87;;;8.27;;
9960;SDS011;5021;51.506;11.320;2022-08-25T08:57:26;13.73;;;8.50;;
9960;SDS011;5021;51.506;11.320;2022-08-25T08:59:54;12.70;;;8.87;;
9960;SDS011;5021;51.506;11.320;2022-08-25T09:02:32;12.35;;;8.75;;
9960;SDS011;5021;51.506;11.320;2022-08-25T09:05:01;14.13;;;9.20;;
9960;SDS011;5021;51.506;11.320;2022-08-25T09:07:31;13.07;;;9.48;;
9960;SDS011;5021;51.506;11.320;2022-08-25T09:09:59;12.07;;;9.00;;
9960;SDS011;5021;51.506;11.320;2022-08-25T09:14:59;14.63;;;9.50;;
9960;SDS011;5021;51.506;11.320;2022-08-25T09:17:42;15.57;;;10.55;;
9960;SDS011;5021;51.506;11.320;2022-08-25T09:20:27;13.43;;;9.90;;
9960;SDS011;5021;51.506;11.320;2022-08-25T09:25:27;16.50;;;10.27;;
9960;SDS011;5021;51.506;11.320;2022-08-25T09:30:23;14.43;;;10.57;;
9960;SDS011;5021;51.506;11.320;2022-08-25T09:32:50;13.10;;;10.03;;
9960;SDS011;5021;51.506;11.320;2022-08-25T09:38:00;11.55;;;10.07;;
9960;SDS011;5021;51.506;11.320;2022-08-25T09:40:27;15.77;;;10.50;;
9960;SDS011;5021;51.506;11.320;2022-08-25T09:42:55;15.05;;;10.10;;
9960;SDS011;5021;51.506;11.320;2022-08-25T09:45:41;15.75;;;9.95;;
9960;SDS011;5021;51.506;11.320;2022-08-25T09:48:25;13.48;;;10.32;;
9960;SDS011;5021;51.506;11.320;2022-08-25T09:50:52;16.55;;;9.57;;
9960;SDS011;5021;51.506;11.320;2022-08-25T09:53:19;16.38;;;10.77;;
9960;SDS011;5021;51.506;11.320;2022-08-25T09:55:45;15.60;;;9.70;;
9960;SDS011;5021;51.506;11.320;2022-08-25T09:58:15;18.70;;;10.05;;
9960;SDS011;5021;51.506;11.320;2022-08-25T10:00:42;13.65;;;9.20;;
9960;SDS011;5021;51.506;11.320;2022-08-25T10:11:09;13.68;;;8.82;;
9960;SDS011;5021;51.506;11.320;2022-08-25T10:13:39;14.48;;;8.70;;
9960;SDS011;5021;51.506;11.320;2022-08-25T10:16:19;14.00;;;8.32;;
9960;SDS011;5021;51.506;11.320;2022-08-25T10:18:59;16.52;;;10.43;;
9960;SDS011;5021;51.506;11.320;2022-08-25T10:21:25;15.00;;;9.93;;
9960;SDS011;5021;51.506;11.320;2022-08-25T10:23:51;17.08;;;9.85;;
9960;SDS011;5021;51.506;11.320;2022-08-25T10:29:08;14.05;;;9.52;;
9960;SDS011;5021;51.506;11.320;2022-08-25T10:31:39;13.57;;;9.35;;
9960;SDS011;5021;51.506;11.320;2022-08-25T10:37:09;16.42;;;9.77;;
9960;SDS011;5021;51.506;11.320;2022-08-25T10:42:05;11.73;;;8.88;;
9960;SDS011;5021;51.506;11.320;2022-08-25T10:44:38;18.92;;;10.15;;
9960;SDS011;5021;51.506;11.320;2022-08-25T10:47:33;13.80;;;9.60;;
9960;SDS011;5021;51.506;11.320;2022-08-25T10:50:03;14.75;;;9.15;;
9960;SDS011;5021;51.506;11.320;2022-08-25T10:52:34;14.88;;;8.77;;
9960;SDS011;5021;51.506;11.320;2022-08-25T10:55:19;17.88;;;9.00;;
9960;SDS011;5021;51.506;11.320;2022-08-25T11:00:33;17.65;;;8.85;;
9960;SDS011;5021;51.506;11.320;2022-08-25T11:05:45;16.70;;;7.72;;
9960;SDS011;5021;51.506;11.320;2022-08-25T11:10:58;12.45;;;7.50;;
9960;SDS011;5021;51.506;11.320;2022-08-25T11:13:37;16.55;;;7.68;;
9960;SDS011;5021;51.506;11.320;2022-08-25T11:16:08;13.27;;;7.20;;
9960;SDS011;5021;51.506;11.320;2022-08-25T11:18:35;13.93;;;7.95;;
9960;SDS011;5021;51.506;11.320;2022-08-25T11:21:19;16.75;;;8.73;;
9960;SDS011;5021;51.506;11.320;2022-08-25T11:23:55;14.90;;;7.72;;
9960;SDS011;5021;51.506;11.320;2022-08-25T11:26:25;16.00;;;8.52;;
9960;SDS011;5021;51.506;11.320;2022-08-25T11:28:59;10.50;;;7.32;;
9960;SDS011;5021;51.506;11.320;2022-08-25T11:31:26;13.60;;;8.52;;
9960;SDS011;5021;51.506;11.320;2022-08-25T11:33:53;13.00;;;7.90;;
9960;SDS011;5021;51.506;11.320;2022-08-25T11:49:33;11.65;;;7.20;;
9960;SDS011;5021;51.506;11.320;2022-08-25T11:52:02;9.60;;;6.72;;
9960;SDS011;5021;51.506;11.320;2022-08-25T11:54:33;8.65;;;6.47;;
9960;SDS011;5021;51.506;11.320;2022-08-25T11:57:04;11.20;;;7.47;;
9960;SDS011;5021;51.506;11.320;2022-08-25T12:05:01;12.35;;;6.57;;
9960;SDS011;5021;51.506;11.320;2022-08-25T12:08:12;10.27;;;6.63;;
9960;SDS011;5021;51.506;11.320;2022-08-25T12:17:38;9.75;;;6.78;;
9960;SDS011;5021;51.506;11.320;2022-08-25T12:20:04;10.60;;;6.95;;
9960;SDS011;5021;51.506;11.320;2022-08-25T12:25:03;12.30;;;7.43;;
9960;SDS011;5021;51.506;11.320;2022-08-25T12:30:32;12.85;;;7.60;;
9960;SDS011;5021;51.506;11.320;2022-08-25T12:38:15;14.10;;;8.27;;
9960;SDS011;5021;51.506;11.320;2022-08-25T12:45:41;13.75;;;6.90;;
9960;SDS011;5021;51.506;11.320;2022-08-25T12:50:56;17.42;;;7.47;;
9960;SDS011;5021;51.506;11.320;2022-08-25T12:53:27;9.82;;;6.63;;
9960;SDS011;5021;51.506;11.320;2022-08-25T12:56:05;11.02;;;6.75;;
9960;SDS011;5021;51.506;11.320;2022-08-25T13:03:48;12.05;;;7.35;;
9960;SDS011;5021;51.506;11.320;2022-08-25T13:08:46;16.25;;;7.95;;
9960;SDS011;5021;51.506;11.320;2022-08-25T13:14:06;8.95;;;6.60;;
9960;SDS011;5021;51.506;11.320;2022-08-25T13:16:36;19.02;;;7.05;;
9960;SDS011;5021;51.506;11.320;2022-08-25T13:19:03;12.75;;;7.05;;
9960;SDS011;5021;51.506;11.320;2022-08-25T13:21:34;17.55;;;7.38;;
9960;SDS011;5021;51.506;11.320;2022-08-25T13:24:01;13.88;;;7.03;;
9960;SDS011;5021;51.506;11.320;2022-08-25T13:26:31;13.98;;;6.72;;
9960;SDS011;5021;51.506;11.320;2022-08-25T13:28:59;18.83;;;7.70;;
9960;SDS011;5021;51.506;11.320;2022-08-25T13:31:26;14.90;;;7.70;;
9960;SDS011;5021;51.506;11.320;2022-08-25T13:34:00;21.83;;;7.28;;
9960;SDS011;5021;51.506;11.320;2022-08-25T13:36:28;13.23;;;6.43;;
9960;SDS011;5021;51.506;11.320;2022-08-25T13:39:14;15.45;;;7.30;;
9960;SDS011;5021;51.506;11.320;2022-08-25T13:41:45;12.13;;;7.20;;
9960;SDS011;5021;51.506;11.320;2022-08-25T13:44:12;14.38;;;6.57;;
9960;SDS011;5021;51.506;11.320;2022-08-25T13:46:38;16.35;;;7.43;;
9960;SDS011;5021;51.506;11.320;2022-08-25T13:49:04;16.60;;;7.85;;
9960;SDS011;5021;51.506;11.320;2022-08-25T13:51:31;12.98;;;6.95;;
9960;SDS011;5021;51.506;11.320;2022-08-25T13:53:58;13.98;;;7.07;;
9960;SDS011;5021;51.506;11.320;2022-08-25T13:56:35;15.18;;;7.32;;
9960;SDS011;5021;51.506;11.320;2022-08-25T13:59:02;16.77;;;7.00;;
9960;SDS011;5021;51.506;11.320;2022-08-25T14:01:31;17.90;;;7.50;;
9960;SDS011;5021;51.506;11.320;2022-08-25T14:04:58;16.60;;;7.57;;
9960;SDS011;5021;51.506;11.320;2022-08-25T14:07:23;16.73;;;7.00;;
9960;SDS011;5021;51.506;11.320;2022-08-25T14:10:01;18.23;;;7.47;;
9960;SDS011;5021;51.506;11.320;2022-08-25T14:14:59;14.18;;;7.40;;
9960;SDS011;5021;51.506;11.320;2022-08-25T14:17:25;13.73;;;5.97;;
9960;SDS011;5021;51.506;11.320;2022-08-25T14:19:51;16.30;;;6.65;;
9960;SDS011;5021;51.506;11.320;2022-08-25T14:22:17;13.40;;;6.80;;
9960;SDS011;5021;51.506;11.320;2022-08-25T14:24:43;14.57;;;7.10;;
9960;SDS011;5021;51.506;11.320;2022-08-25T14:27:09;12.75;;;6.97;;
9960;SDS011;5021;51.506;11.320;2022-08-25T14:29:35;16.27;;;7.50;;
9960;SDS011;5021;51.506;11.320;2022-08-25T14:32:01;23.60;;;7.55;;
9960;SDS011;5021;51.506;11.320;2022-08-25T14:34:34;17.05;;;7.15;;
9960;SDS011;5021;51.506;11.320;2022-08-25T14:37:11;13.68;;;7.22;;
9960;SDS011;5021;51.506;11.320;2022-08-25T14:39:38;14.80;;;7.50;;
9960;SDS011;5021;51.506;11.320;2022-08-25T14:42:04;17.77;;;7.40;;
9960;SDS011;5021;51.506;11.320;2022-08-25T14:44:30;16.95;;;7.10;;
9960;SDS011;5021;51.506;11.320;2022-08-25T14:46:57;13.10;;;7.38;;
9960;SDS011;5021;51.506;11.320;2022-08-25T14:49:31;15.23;;;7.25;;
9960;SDS011;5021;51.506;11.320;2022-08-25T14:52:00;19.25;;;7.28;;
9960;SDS011;5021;51.506;11.320;2022-08-25T14:54:29;15.45;;;6.60;;
9960;SDS011;5021;51.506;11.320;2022-08-25T14:56:55;16.13;;;6.85;;
9960;SDS011;5021;51.506;11.320;2022-08-25T14:59:21;16.30;;;6.70;;
9960;SDS011;5021;51.506;11.320;2022-08-25T15:01:47;10.88;;;7.03;;
9960;SDS011;5021;51.506;11.320;2022-08-25T15:04:14;13.75;;;6.72;;
9960;SDS011;5021;51.506;11.320;2022-08-25T15:06:41;18.35;;;6.90;;
9960;SDS011;5021;51.506;11.320;2022-08-25T15:09:08;15.13;;;6.82;;
9960;SDS011;5021;51.506;11.320;2022-08-25T15:11:39;14.93;;;7.20;;
9960;SDS011;5021;51.506;11.320;2022-08-25T15:14:06;15.25;;;7.00;;
9960;SDS011;5021;51.506;11.320;2022-08-25T15:16:35;11.07;;;6.65;;
9960;SDS011;5021;51.506;11.320;2022-08-25T15:19:03;14.70;;;6.30;;
9960;SDS011;5021;51.506;11.320;2022-08-25T15:21:30;12.98;;;6.30;;
9960;SDS011;5021;51.506;11.320;2022-08-25T15:23:56;18.90;;;7.50;;
9960;SDS011;5021;51.506;11.320;2022-08-25T15:26:22;13.70;;;6.95;;
9960;SDS011;5021;51.506;11.320;2022-08-25T15:28:49;16.70;;;7.45;;
9960;SDS011;5021;51.506;11.320;2022-08-25T15:31:16;17.60;;;7.38;;
9960;SDS011;5021;51.506;11.320;2022-08-25T15:33:42;17.02;;;7.40;;
9960;SDS011;5021;51.506;11.320;2022-08-25T15:36:09;13.82;;;7.10;;
9960;SDS011;5021;51.506;11.320;2022-08-25T15:38:36;20.05;;;7.30;;
9960;SDS011;5021;51.506;11.320;2022-08-25T15:41:03;14.80;;;7.05;;
9960;SDS011;5021;51.506;11.320;2022-08-25T15:43:29;16.23;;;7.13;;
9960;SDS011;5021;51.506;11.320;2022-08-25T15:45:55;15.38;;;7.68;;
9960;SDS011;5021;51.506;11.320;2022-08-25T15:48:22;17.20;;;7.18;;
9960;SDS011;5021;51.506;11.320;2022-08-25T15:50:51;16.10;;;6.72;;
9960;SDS011;5021;51.506;11.320;2022-08-25T15:53:19;11.10;;;6.45;;
9960;SDS011;5021;51.506;11.320;2022-08-25T15:55:45;16.30;;;6.70;;
9960;SDS011;5021;51.506;11.320;2022-08-25T15:58:11;16.15;;;6.85;;
9960;SDS011;5021;51.506;11.320;2022-08-25T16:00:37;18.02;;;7.22;;
9960;SDS011;5021;51.506;11.320;2022-08-25T16:03:03;15.02;;;6.22;;
9960;SDS011;5021;51.506;11.320;2022-08-25T16:05:29;15.45;;;6.35;;
9960;SDS011;5021;51.506;11.320;2022-08-25T16:07:55;15.10;;;6.20;;
9960;SDS011;5021;51.506;11.320;2022-08-25T16:10:21;16.05;;;7.28;;
9960;SDS011;5021;51.506;11.320;2022-08-25T16:12:47;17.52;;;7.78;;
9960;SDS011;5021;51.506;11.320;2022-08-25T16:15:13;17.70;;;7.45;;
9960;SDS011;5021;51.506;11.320;2022-08-25T16:17:40;15.75;;;6.72;;
9960;SDS011;5021;51.506;11.320;2022-08-25T16:20:07;17.58;;;7.55;;
9960;SDS011;5021;51.506;11.320;2022-08-25T16:22:33;19.73;;;6.50;;
9960;SDS011;5021;51.506;11.320;2022-08-25T16:24:59;14.80;;;6.30;;
9960;SDS011;5021;51.506;11.320;2022-08-25T16:27:26;16.27;;;6.90;;
9960;SDS011;5021;51.506;11.320;2022-08-25T16:29:52;20.52;;;7.38;;
9960;SDS011;5021;51.506;11.320;2022-08-25T16:32:18;14.23;;;6.38;;
9960;SDS011;5021;51.506;11.320;2022-08-25T16:34:44;15.75;;;7.38;;
9960;SDS011;5021;51.506;11.320;2022-08-25T16:37:11;17.30;;;6.60;;